Time;durP1;ratioP1;P1;durP2;ratioP2;P2;SDS_P1;SDS_P2;PMS_P1;PMS_P2;Temp;Humidity;BMP_temperature;BMP_pressure;BME280_temperature;BME280_humidity;BME280_pressure;Samples;Min_cycle;Max_cycle;Signal;HPM_P1;HPM_P2
2022/02/28 00:01:22;;;;;;;8.48;7.57;;;;;;;-0.38;100.00;100008.78;10355830;28;20066;-57
2022/02/28 00:06:25;;;;;;;9.20;7.70;;;;;;;-0.36;100.00;100009.63;10366555;28;20042;-56
2022/02/28 00:11:28;;;;;;;9.23;7.65;;;;;;;-0.36;100.00;100014.91;10378961;28;20049;-56
2022/02/28 00:16:33;;;;;;;8.25;7.45;;;;;;;-0.37;100.00;100009.69;10380978;28;20122;-57
2022/02/28 00:21:36;;;;;;;8.32;7.53;;;;;;;-0.36;100.00;100012.25;10381256;28;20053;-58
2022/02/28 00:26:39;;;;;;;7.97;7.28;;;;;;;-0.36;100.00;100006.13;10380107;28;20081;-57
2022/02/28 00:31:44;;;;;;;8.60;7.80;;;;;;;-0.41;100.00;100013.34;10374427;28;20438;-57
2022/02/28 00:36:47;;;;;;;10.00;8.10;;;;;;;-0.47;100.00;100019.72;10375219;28;20100;-57
2022/02/28 00:41:50;;;;;;;9.00;7.80;;;;;;;-0.48;100.00;100023.25;10382485;28;20514;-55
2022/02/28 00:46:55;;;;;;;8.48;7.60;;;;;;;-0.48;100.00;100012.69;10377287;28;20069;-55
2022/02/28 00:52:00;;;;;;;8.80;7.60;;;;;;;-0.51;100.00;100007.47;10374063;28;20719;-59
2022/02/28 00:57:05;;;;;;;9.25;7.90;;;;;;;-0.51;100.00;100008.34;10366310;28;20053;-59
2022/02/28 01:02:09;;;;;;;8.80;7.82;;;;;;;-0.52;100.00;100000.44;10371617;28;21380;-59
2022/02/28 01:07:12;;;;;;;9.07;8.18;;;;;;;-0.52;100.00;100011.03;10370360;28;20599;-56
2022/02/28 01:12:16;;;;;;;8.70;7.80;;;;;;;-0.63;100.00;99999.03;10374431;28;20049;-59
2022/02/28 01:17:23;;;;;;;8.85;7.57;;;;;;;-0.68;100.00;99995.69;10376440;28;20077;-60
2022/02/28 01:22:27;;;;;;;8.70;7.78;;;;;;;-0.75;100.00;99999.44;10376484;28;20095;-57
2022/02/28 01:27:31;;;;;;;10.45;8.05;;;;;;;-0.85;100.00;99992.72;10378091;28;20075;-57
2022/02/28 01:32:35;;;;;;;9.07;8.20;;;;;;;-0.98;100.00;100000.19;10382334;28;20046;-55
2022/02/28 01:37:41;;;;;;;10.23;9.20;;;;;;;-1.12;100.00;99988.28;10383687;28;20065;-59
2022/02/28 01:42:44;;;;;;;10.65;9.10;;;;;;;-1.18;100.00;99995.53;10361992;28;20109;-58
2022/02/28 01:47:49;;;;;;;9.75;8.15;;;;;;;-1.21;100.00;99995.63;10360446;28;20128;-58
2022/02/28 01:52:52;;;;;;;9.32;8.02;;;;;;;-1.26;100.00;99994.00;10363794;28;20077;-57
2022/02/28 01:57:56;;;;;;;9.70;8.20;;;;;;;-1.32;100.00;99986.25;10362842;28;20044;-59
2022/02/28 02:03:02;;;;;;;9.98;8.40;;;;;;;-1.39;100.00;99982.06;10363167;28;20050;-59
2022/02/28 02:08:07;;;;;;;10.68;8.93;;;;;;;-1.46;100.00;99976.09;10360395;28;20072;-59
2022/02/28 02:13:14;;;;;;;10.43;8.60;;;;;;;-1.54;100.00;99975.47;10361057;28;20758;-59
2022/02/28 02:18:18;;;;;;;11.02;8.80;;;;;;;-1.62;100.00;99969.53;10361240;28;20050;-59
2022/02/28 02:23:24;;;;;;;9.88;8.88;;;;;;;-1.64;100.00;99961.66;10362624;28;20065;-58
2022/02/28 02:28:28;;;;;;;10.85;8.77;;;;;;;-1.67;100.00;99960.91;10361905;28;20133;-59
2022/02/28 02:33:31;;;;;;;9.95;8.82;;;;;;;-1.71;100.00;99966.25;10362660;28;20497;-60
2022/02/28 02:38:38;;;;;;;11.27;9.73;;;;;;;-1.72;100.00;99961.03;10361784;28;20053;-59
2022/02/28 02:43:41;;;;;;;10.30;9.15;;;;;;;-1.72;100.00;99959.25;10362489;28;20470;-60
2022/02/28 02:48:44;;;;;;;10.48;9.38;;;;;;;-1.75;100.00;99959.31;10356492;28;20050;-56
2022/02/28 02:53:52;;;;;;;10.38;9.38;;;;;;;-1.75;100.00;99966.41;10359079;28;20060;-59
2022/02/28 02:58:56;;;;;;;10.52;9.52;;;;;;;-1.77;100.00;99965.56;10360889;28;20052;-57
2022/02/28 03:03:59;;;;;;;11.48;9.18;;;;;;;-1.83;100.00;99971.06;10361216;28;20069;-58
2022/02/28 03:09:03;;;;;;;10.27;8.80;;;;;;;-1.86;100.00;99971.97;10360364;28;20060;-58
2022/02/28 03:14:07;;;;;;;10.20;9.20;;;;;;;-1.94;100.00;99972.19;10357675;28;20046;-60
2022/02/28 03:19:11;;;;;;;11.35;9.80;;;;;;;-1.99;100.00;99970.59;10360173;28;20417;-60
2022/02/28 03:24:21;;;;;;;10.15;9.07;;;;;;;-2.06;100.00;99962.00;10358249;28;20046;-59
2022/02/28 03:29:26;;;;;;;12.32;10.18;;;;;;;-2.13;100.00;99977.16;10357873;28;20103;-59
2022/02/28 03:34:30;;;;;;;11.88;10.75;;;;;;;-2.15;100.00;99976.31;10357762;28;20092;-60
2022/02/28 03:39:34;;;;;;;13.20;10.45;;;;;;;-2.18;100.00;99979.94;10360127;28;20510;-60
2022/02/28 03:44:38;;;;;;;11.95;10.75;;;;;;;-2.22;100.00;99970.34;10357952;28;20099;-60
2022/02/28 03:49:43;;;;;;;12.93;10.77;;;;;;;-2.25;100.00;99970.41;10358103;28;20092;-60
2022/02/28 03:54:54;;;;;;;11.65;10.45;;;;;;;-2.28;100.00;99970.50;10356509;28;20398;-58
2022/02/28 03:59:57;;;;;;;12.98;11.32;;;;;;;-2.29;100.00;99965.28;10357276;28;20068;-59
2022/02/28 04:05:01;;;;;;;12.25;10.95;;;;;;;-2.32;100.00;99969.72;10355399;28;20177;-58
2022/02/28 04:10:06;;;;;;;12.02;10.77;;;;;;;-2.33;100.00;99962.72;10359592;28;20058;-61
2022/02/28 04:15:11;;;;;;;12.77;10.85;;;;;;;-2.36;100.00;99956.66;10359472;28;20038;-59
2022/02/28 04:20:18;;;;;;;13.48;12.05;;;;;;;-2.41;100.00;99958.56;10373188;28;20100;-59
2022/02/28 04:25:22;;;;;;;13.50;12.20;;;;;;;-2.42;100.00;99957.69;10358524;28;20042;-61
2022/02/28 04:30:29;;;;;;;12.65;11.35;;;;;;;-2.41;100.00;99950.66;10358253;28;20066;-60
2022/02/28 04:35:33;;;;;;;12.85;11.48;;;;;;;-2.43;100.00;99955.94;10354468;28;20100;-61
2022/02/28 04:40:40;;;;;;;13.20;11.63;;;;;;;-2.41;100.00;99948.84;10358750;28;20058;-58
2022/02/28 04:45:43;;;;;;;12.98;11.68;;;;;;;-2.41;100.00;99945.38;10358641;28;20065;-61
2022/02/28 04:50:47;;;;;;;13.18;11.82;;;;;;;-2.42;100.00;99935.72;10354320;28;20077;-61
2022/02/28 04:55:53;;;;;;;15.77;12.00;;;;;;;-2.43;100.00;99948.03;10360076;28;20108;-61
2022/02/28 05:00:58;;;;;;;14.15;12.57;;;;;;;-2.44;100.00;99956.00;10366347;28;20049;-59
2022/02/28 05:06:02;;;;;;;17.08;13.75;;;;;;;-2.47;100.00;99949.03;10363996;28;20056;-60
2022/02/28 05:11:07;;;;;;;15.40;13.63;;;;;;;-2.48;100.00;99953.44;10362901;28;20414;-59
2022/02/28 05:16:10;;;;;;;15.13;13.52;;;;;;;-2.48;100.00;99956.06;10365005;28;20103;-59
2022/02/28 05:21:15;;;;;;;15.18;13.38;;;;;;;-2.50;100.00;99960.53;10362830;28;20046;-59
2022/02/28 05:26:23;;;;;;;15.27;13.68;;;;;;;-2.53;100.00;99957.09;10365421;28;20049;-59
2022/02/28 05:31:26;;;;;;;17.35;14.43;;;;;;;-2.56;100.00;99965.97;10364029;28;20080;-60
2022/02/28 05:36:49;;;;;;;17.30;14.32;;;;;;;-2.61;100.00;99954.66;10362179;28;20064;-60
2022/02/28 05:42:20;;;;;;;15.60;13.68;;;;;;;-2.64;100.00;99963.53;10362662;28;20168;-60
2022/02/28 05:47:27;;;;;;;16.35;14.20;;;;;;;-2.66;100.00;99967.13;10365671;28;20056;-60
2022/02/28 05:52:31;;;;;;;17.05;14.55;;;;;;;-2.72;100.00;99969.91;10363208;28;20139;-58
2022/02/28 05:57:37;;;;;;;17.40;14.13;;;;;;;-2.79;100.00;99967.44;10362193;28;20058;-58
2022/02/28 06:02:41;;;;;;;16.35;14.63;;;;;;;-2.82;100.00;99969.25;10364526;28;20096;-58
2022/02/28 06:07:44;;;;;;;17.98;15.30;;;;;;;-2.82;100.00;99977.16;10364582;28;20120;-58
2022/02/28 06:12:51;;;;;;;16.52;14.43;;;;;;;-2.82;100.00;99980.69;10364427;28;20042;-57
2022/02/28 06:18:06;;;;;;;15.68;13.65;;;;;;;-2.86;100.00;99986.94;10360535;28;20127;-58
2022/02/28 06:23:14;;;;;;;16.98;14.45;;;;;;;-2.89;100.00;99979.13;10362250;28;20843;-58
2022/02/28 06:28:21;;;;;;;16.70;14.02;;;;;;;-2.95;100.00;99974.88;10360252;28;20046;-57
2022/02/28 06:33:24;;;;;;;16.60;12.98;;;;;;;-2.96;100.00;99972.25;10360943;28;20046;-58
2022/02/28 06:38:28;;;;;;;16.67;14.48;;;;;;;-3.00;100.00;99983.78;10362085;28;20132;-58
2022/02/28 06:43:32;;;;;;;17.08;14.68;;;;;;;-3.00;100.00;99979.38;10362609;28;20457;-58
2022/02/28 06:48:36;;;;;;;16.77;15.07;;;;;;;-2.98;100.00;100008.34;10361164;28;20128;-54
2022/02/28 06:53:39;;;;;;;19.50;16.65;;;;;;;-2.96;100.00;100009.16;10358377;28;20498;-54
2022/02/28 06:58:44;;;;;;;18.05;15.98;;;;;;;-2.93;100.00;100019.66;10358954;28;20128;-57
2022/02/28 07:03:48;;;;;;;17.23;14.80;;;;;;;-2.89;100.00;100029.25;10374737;28;20129;-57
2022/02/28 07:08:52;;;;;;;14.90;13.40;;;;;;;-2.88;100.00;100036.22;10361126;28;20042;-54
2022/02/28 07:13:59;;;;;;;14.55;13.13;;;;;;;-2.97;100.00;100044.34;10361930;28;20065;-58
2022/02/28 07:19:03;;;;;;;14.27;12.82;;;;;;;-3.00;100.00;100044.44;10360923;28;20069;-53
2022/02/28 07:24:07;;;;;;;16.23;13.80;;;;;;;-3.02;100.00;100046.25;10358209;28;20056;-56
2022/02/28 07:29:11;;;;;;;17.40;15.02;;;;;;;-3.03;100.00;100044.50;10357462;28;20069;-59
2022/02/28 07:34:14;;;;;;;23.85;15.50;;;;;;;-2.99;100.00;100047.03;10360600;28;20148;-58
2022/02/28 07:39:18;;;;;;;96.13;16.58;;;;;;;-3.03;100.00;100053.28;10307336;23;20137;-58
2022/02/28 07:44:22;;;;;;;39.90;18.25;;;;;;;-2.97;100.00;100047.00;10268755;28;20081;-60
2022/02/28 07:49:32;;;;;;;46.85;18.85;;;;;;;-2.87;100.00;100051.13;10253614;28;20177;-57
2022/02/28 07:54:35;;;;;;;46.78;18.17;;;;;;;-2.81;100.00;100065.97;10255268;28;20117;-58
2022/02/28 07:59:40;;;;;;;41.95;18.52;;;;;;;-2.76;100.00;100063.25;10255953;28;20042;-58
2022/02/28 08:04:44;;;;;;;27.83;18.75;;;;;;;-2.69;100.00;100072.72;10257840;28;20129;-59
2022/02/28 08:09:47;;;;;;;66.78;18.58;;;;;;;-2.64;100.00;100078.75;10257977;28;20134;-58
2022/02/28 08:14:52;;;;;;;68.55;18.75;;;;;;;-2.51;100.00;100080.19;10261533;28;20169;-59
2022/02/28 08:19:55;;;;;;;33.25;18.50;;;;;;;-2.48;100.00;100084.53;10262119;28;20055;-61
2022/02/28 08:24:58;;;;;;;27.30;18.75;;;;;;;-2.40;100.00;100089.59;10264363;28;20047;-60
2022/02/28 08:30:03;;;;;;;28.40;18.48;;;;;;;-2.35;100.00;100077.19;10268374;28;20504;-60
2022/02/28 08:35:07;;;;;;;99.70;21.15;;;;;;;-2.45;100.00;100087.09;10274501;28;20114;-57
2022/02/28 08:40:11;;;;;;;32.17;20.80;;;;;;;-2.32;100.00;100085.03;10279820;28;20050;-57
2022/02/28 08:45:16;;;;;;;62.45;23.52;;;;;;;-2.24;100.00;100077.78;10229829;28;20071;-61
2022/02/28 08:50:19;;;;;;;40.20;24.02;;;;;;;-2.13;100.00;100085.44;10256304;28;20138;-57
2022/02/28 08:55:22;;;;;;;31.05;21.80;;;;;;;-2.14;100.00;100093.38;10242393;28;20047;-58
2022/02/28 09:00:28;;;;;;;36.50;23.55;;;;;;;-2.05;100.00;100095.78;10243975;28;20129;-58
2022/02/28 09:05:31;;;;;;;36.45;22.35;;;;;;;-1.98;100.00;100105.28;10242348;28;20718;-58
2022/02/28 09:10:34;;;;;;;46.83;22.83;;;;;;;-2.07;100.00;100106.38;10227258;28;20091;-60
2022/02/28 09:15:43;;;;;;;29.90;22.77;;;;;;;-2.07;100.00;100105.53;10219159;28;20050;-59
2022/02/28 09:20:46;;;;;;;23.55;19.90;;;;;;;-1.93;100.00;100113.94;10238017;28;20539;-61
2022/02/28 09:25:50;;;;;;;24.67;21.55;;;;;;;-1.82;100.00;100111.03;10238812;28;20445;-61
2022/02/28 09:30:55;;;;;;;20.00;17.67;;;;;;;-1.82;100.00;100120.75;10217287;28;20047;-62
2022/02/28 09:36:00;;;;;;;18.33;16.38;;;;;;;-1.81;100.00;100120.69;10223452;28;20055;-62
2022/02/28 09:41:04;;;;;;;23.88;17.70;;;;;;;-1.75;100.00;100124.94;10208514;28;20051;-61
2022/02/28 09:46:29;;;;;;;18.60;14.93;;;;;;;-1.58;100.00;100129.78;10238536;28;20051;-61
2022/02/28 09:51:57;;;;;;;18.10;15.80;;;;;;;-1.42;100.00;100130.22;10241432;28;20551;-62
2022/02/28 09:57:23;;;;;;;18.13;14.88;;;;;;;-1.27;100.00;100113.03;10229134;28;20059;-60
2022/02/28 10:02:41;;;;;;;17.40;14.98;;;;;;;-1.10;100.00;100125.75;10230801;28;20412;-62
2022/02/28 10:07:51;;;;;;;14.90;13.32;;;;;;;-0.98;100.00;100117.47;10239182;28;20051;-62
2022/02/28 10:12:55;;;;;;;18.55;15.35;;;;;;;-0.82;100.00;100111.72;10232366;28;20047;-61
2022/02/28 10:18:02;;;;;;;18.73;14.88;;;;;;;-0.69;100.00;100114.81;10235605;28;20062;-61
2022/02/28 10:23:12;;;;;;;16.00;13.70;;;;;;;-0.49;100.00;100107.16;10239470;28;20102;-61
2022/02/28 10:29:04;;;;;;;15.40;13.13;;;;;;;-0.34;100.00;100108.41;10228988;28;20106;-63
2022/02/28 10:34:19;;;;;;;18.75;14.00;;;;;;;-0.27;100.00;100094.97;10235994;28;20074;-63
2022/02/28 10:39:59;;;;;;;17.75;13.57;;;;;;;-0.13;100.00;100092.72;10227373;28;20513;-62
2022/02/28 10:45:17;;;;;;;16.92;13.98;;;;;;;-0.02;100.00;100095.88;10217617;28;20564;-62
2022/02/28 10:50:35;;;;;;;16.90;13.95;;;;;;;0.10;100.00;100093.72;10237692;28;20479;-63
2022/02/28 10:55:38;;;;;;;18.17;14.32;;;;;;;0.19;100.00;100092.53;10235386;28;20040;-63
2022/02/28 11:00:52;;;;;;;17.83;14.45;;;;;;;0.35;100.00;100083.13;10210127;28;20051;-60
2022/02/28 11:05:58;;;;;;;15.48;12.88;;;;;;;0.35;100.00;100079.59;10244875;28;20567;-60
2022/02/28 11:11:09;;;;;;;17.15;13.40;;;;;;;0.28;100.00;100081.59;10239658;28;20520;-63
2022/02/28 11:16:13;;;;;;;18.40;13.77;;;;;;;0.39;100.00;100067.97;10220856;28;20115;-59
2022/02/28 11:21:18;;;;;;;15.27;12.38;;;;;;;0.53;100.00;100060.34;10239886;28;20098;-58
2022/02/28 11:26:22;;;;;;;15.25;12.50;;;;;;;0.69;100.00;100059.78;10231386;28;20393;-64
2022/02/28 11:31:25;;;;;;;16.38;12.60;;;;;;;0.99;100.00;100051.59;10224985;28;20214;-58
2022/02/28 11:36:45;;;;;;;14.68;11.82;;;;;;;0.87;100.00;100045.81;10238755;28;20412;-58
2022/02/28 11:41:48;;;;;;;15.95;12.50;;;;;;;0.99;100.00;100047.13;10238021;28;20134;-59
2022/02/28 11:46:59;;;;;;;14.48;12.05;;;;;;;1.04;100.00;100045.16;10227810;28;20090;-65
2022/02/28 11:52:32;;;;;;;14.88;11.93;;;;;;;1.27;100.00;100034.53;10235104;28;20552;-67
2022/02/28 11:57:49;;;;;;;15.43;12.65;;;;;;;1.51;100.00;100025.56;10237250;28;20055;-62
2022/02/28 12:02:55;;;;;;;14.32;11.82;;;;;;;1.65;100.00;100014.34;10230196;28;21440;-60
2022/02/28 12:08:02;;;;;;;14.32;11.52;;;;;;;1.52;100.00;100024.63;10243733;28;20427;-61
2022/02/28 12:13:06;;;;;;;14.95;10.93;;;;;;;1.53;100.00;100017.50;10234252;28;20401;-61
2022/02/28 12:18:11;;;;;;;13.27;11.32;;;;;;;1.69;100.00;100020.41;10228101;28;20074;-62
2022/02/28 12:23:25;;;;;;;14.35;11.85;;;;;;;1.74;100.00;100013.09;10240678;28;20534;-58
2022/02/28 12:28:30;;;;;;;13.60;11.00;;;;;;;1.74;100.00;100014.91;10229535;28;20438;-59
2022/02/28 12:34:03;;;;;;;12.93;11.02;;;;;;;1.87;100.00;100009.91;10231911;28;20054;-61
2022/02/28 12:39:13;;;;;;;13.90;11.15;;;;;;;1.99;100.00;100014.69;10247055;28;20142;-59
2022/02/28 12:44:18;;;;;;;12.55;10.90;;;;;;;2.15;100.00;100007.78;10237488;28;20078;-60
2022/02/28 12:49:24;;;;;;;13.50;10.88;;;;;;;2.29;100.00;100003.63;10239533;28;20464;-60
2022/02/28 12:54:30;;;;;;;11.63;10.05;;;;;;;2.45;100.00;100007.31;10233407;28;20062;-61
2022/02/28 12:59:36;;;;;;;14.15;9.95;;;;;;;2.70;100.00;100007.97;10229973;28;20048;-59
2022/02/28 13:04:55;;;;;;;12.20;9.85;;;;;;;2.98;100.00;100001.31;10237214;28;20500;-60
2022/02/28 13:10:03;;;;;;;11.45;8.85;;;;;;;3.24;100.00;99992.94;10232175;28;20055;-60
2022/02/28 13:15:07;;;;;;;11.88;9.32;;;;;;;3.44;100.00;99984.91;10233932;28;20472;-60
2022/02/28 13:20:12;;;;;;;12.80;9.93;;;;;;;3.68;100.00;99980.09;10237123;28;20106;-58
2022/02/28 13:25:17;;;;;;;11.35;8.60;;;;;;;3.97;100.00;99977.75;10238992;28;20138;-60
2022/02/28 13:30:21;;;;;;;10.80;8.82;;;;;;;4.19;100.00;99976.59;10240187;28;20043;-58
2022/02/28 13:35:25;;;;;;;10.38;8.88;;;;;;;4.53;100.00;99964.94;10242926;28;20042;-61
2022/02/28 13:40:30;;;;;;;10.13;8.70;;;;;;;4.66;100.00;99951.78;10299938;23;20072;-62
2022/02/28 13:45:34;;;;;;;12.18;8.73;;;;;;;4.94;100.00;99953.75;10298117;28;20165;-63
2022/02/28 13:50:44;;;;;;;11.75;8.55;;;;;;;5.13;100.00;99944.69;10285049;28;20446;-65
2022/02/28 13:55:50;;;;;;;9.63;8.15;;;;;;;5.31;100.00;99942.75;10313762;28;20133;-64
2022/02/28 14:00:55;;;;;;;10.77;8.38;;;;;;;5.59;100.00;99937.56;10286362;28;20078;-64
2022/02/28 14:05:59;;;;;;;10.25;7.88;;;;;;;5.76;100.00;99942.78;10306950;28;20073;-64
2022/02/28 14:11:06;;;;;;;9.45;7.25;;;;;;;5.92;100.00;99936.50;10317362;28;20058;-64
2022/02/28 14:16:18;;;;;;;10.23;7.75;;;;;;;6.12;100.00;99941.50;10324452;28;20049;-63
2022/02/28 14:21:26;;;;;;;10.15;8.07;;;;;;;6.29;100.00;99936.94;10324598;28;20042;-62
2022/02/28 14:27:00;;;;;;;10.00;7.97;;;;;;;6.43;100.00;99926.19;10320053;28;20061;-65
2022/02/28 14:32:22;;;;;;;9.48;8.18;;;;;;;6.42;100.00;99931.66;10324481;28;20058;-61
2022/02/28 14:37:26;;;;;;;9.38;7.63;;;;;;;6.60;100.00;99927.78;10323616;28;20133;-60
2022/02/28 14:42:31;;;;;;;10.25;7.40;;;;;;;6.55;100.00;99924.56;10327128;28;20506;-60
2022/02/28 14:47:34;;;;;;;8.40;7.40;;;;;;;6.65;100.00;99930.16;10326760;28;20038;-60
2022/02/28 14:59:38;;;;;;;9.82;7.15;;;;;;;6.86;100.00;99911.00;10323113;28;20418;-59
2022/02/28 15:04:41;;;;;;;7.80;6.30;;;;;;;6.96;100.00;99911.22;10324482;28;20042;-61
2022/02/28 15:09:45;;;;;;;6.78;5.90;;;;;;;6.95;100.00;99907.69;10322121;28;20050;-61
2022/02/28 15:14:49;;;;;;;7.40;5.60;;;;;;;7.00;96.38;99902.88;10338041;28;20046;-59
2022/02/28 15:19:52;;;;;;;8.30;5.40;;;;;;;7.01;89.39;99909.13;10329863;28;20050;-61
2022/02/28 15:24:55;;;;;;;6.43;5.35;;;;;;;6.97;85.60;99903.09;10322375;28;20048;-59
2022/02/28 15:30:00;;;;;;;5.55;4.35;;;;;;;6.93;87.40;99898.91;10325457;28;20149;-61
2022/02/28 15:35:03;;;;;;;5.95;4.53;;;;;;;6.79;87.21;99897.97;10321589;28;20141;-60
2022/02/28 15:40:08;;;;;;;6.13;4.20;;;;;;;6.63;78.56;99895.44;10325695;28;20046;-62
2022/02/28 15:45:13;;;;;;;6.07;4.70;;;;;;;6.39;75.89;99881.84;10322688;28;20042;-62
2022/02/28 15:50:18;;;;;;;5.45;4.40;;;;;;;6.27;83.06;99883.47;10324496;28;20121;-59
2022/02/28 15:55:22;;;;;;;5.05;4.03;;;;;;;6.23;82.62;99881.09;10329013;28;20070;-58
2022/02/28 16:00:29;;;;;;;5.00;4.28;;;;;;;6.14;84.90;99880.72;10322439;28;20525;-61
2022/02/28 16:05:33;;;;;;;5.30;4.15;;;;;;;5.94;85.62;99881.09;10323990;28;20502;-65
2022/02/28 16:10:36;;;;;;;5.40;4.40;;;;;;;5.82;93.61;99882.69;10338483;28;20156;-64
2022/02/28 16:15:41;;;;;;;6.47;4.72;;;;;;;5.60;98.50;99889.38;10340070;28;20412;-59
2022/02/28 16:20:44;;;;;;;5.93;4.65;;;;;;;5.35;100.00;99881.97;10347710;28;20038;-57
2022/02/28 16:25:48;;;;;;;6.32;5.18;;;;;;;5.08;100.00;99888.00;10339743;28;20077;-60
2022/02/28 16:30:53;;;;;;;6.53;5.38;;;;;;;4.89;100.00;99878.38;10330521;28;20065;-61
2022/02/28 16:35:56;;;;;;;6.72;5.10;;;;;;;4.69;100.00;99881.34;10321969;28;20494;-61
2022/02/28 16:40:59;;;;;;;6.13;5.30;;;;;;;4.41;100.00;99880.25;10321401;28;20474;-61
2022/02/28 16:46:04;;;;;;;7.00;5.20;;;;;;;4.06;100.00;99891.06;10338831;28;20464;-59
2022/02/28 16:51:07;;;;;;;8.32;5.68;;;;;;;3.73;100.00;99895.44;10341674;28;20112;-60
2022/02/28 16:56:10;;;;;;;6.78;6.03;;;;;;;3.41;100.00;99892.63;10324204;28;20141;-59
2022/02/28 17:01:15;;;;;;;7.20;6.25;;;;;;;3.16;100.00;99899.25;10325853;28;20050;-56
2022/02/28 17:06:18;;;;;;;7.10;5.90;;;;;;;2.95;100.00;99905.63;10334180;28;20047;-60
2022/02/28 17:11:21;;;;;;;7.25;6.25;;;;;;;2.69;100.00;99916.63;10325830;28;20050;-60
2022/02/28 17:16:26;;;;;;;8.07;6.20;;;;;;;2.52;100.00;99914.78;10327602;28;20069;-63
2022/02/28 17:21:29;;;;;;;6.57;5.75;;;;;;;2.28;100.00;99917.66;10328351;28;20081;-62
2022/02/28 17:26:32;;;;;;;8.60;5.78;;;;;;;2.13;100.00;99918.34;10328550;28;20038;-59
2022/02/28 17:31:36;;;;;;;7.30;5.80;;;;;;;1.97;100.00;99937.69;10326696;28;20050;-60
2022/02/28 17:36:39;;;;;;;7.50;5.40;;;;;;;1.83;100.00;99932.13;10327745;28;20042;-57
2022/02/28 17:41:43;;;;;;;8.05;5.30;;;;;;;1.71;100.00;99941.47;10328640;28;20065;-61
2022/02/28 17:46:47;;;;;;;5.88;4.93;;;;;;;1.56;100.00;99926.22;10323340;28;20049;-60
2022/02/28 17:51:50;;;;;;;6.05;4.90;;;;;;;1.45;100.00;99939.94;10325690;28;20457;-60
2022/02/28 17:56:54;;;;;;;6.13;5.13;;;;;;;1.35;100.00;99942.16;10325948;28;20049;-59
2022/02/28 18:01:58;;;;;;;7.47;4.72;;;;;;;1.27;100.00;99952.22;10329835;28;20073;-61
2022/02/28 18:07:03;;;;;;;5.68;4.78;;;;;;;1.15;100.00;99945.66;10326870;28;20053;-61
2022/02/28 18:12:08;;;;;;;6.70;4.93;;;;;;;1.10;100.00;99940.53;10326102;28;20076;-60
2022/02/28 18:17:12;;;;;;;8.57;4.78;;;;;;;0.96;100.00;99940.22;10346762;28;20126;-58
2022/02/28 18:22:15;;;;;;;5.80;4.60;;;;;;;0.88;100.00;99952.00;10329794;28;20050;-61
2022/02/28 18:27:18;;;;;;;7.35;5.25;;;;;;;0.80;100.00;99951.44;10325973;28;20046;-62
2022/02/28 18:32:38;;;;;;;5.68;4.20;;;;;;;0.76;100.00;99950.72;10329334;28;20153;-58
2022/02/28 18:37:42;;;;;;;5.07;4.40;;;;;;;0.71;100.00;99946.53;10353723;28;20121;-56
2022/02/28 18:42:46;;;;;;;8.55;7.35;;;;;;;0.65;100.00;99955.59;10357618;28;20479;-58
2022/02/28 18:47:53;;;;;;;13.98;10.60;;;;;;;0.60;100.00;99955.78;10333873;28;20527;-58
2022/02/28 18:52:57;;;;;;;13.70;10.50;;;;;;;0.55;100.00;99960.38;10350521;28;20129;-66
2022/02/28 18:58:00;;;;;;;15.00;10.57;;;;;;;0.48;100.00;99953.59;10341992;28;20517;-65
2022/02/28 19:03:05;;;;;;;15.73;9.40;;;;;;;0.43;100.00;99953.78;10352607;28;20050;-62
2022/02/28 19:08:09;;;;;;;11.38;9.20;;;;;;;0.36;100.00;99948.75;10337987;28;20145;-64
2022/02/28 19:13:12;;;;;;;6.43;5.18;;;;;;;0.23;100.00;99946.56;10324694;28;20141;-63
2022/02/28 19:18:18;;;;;;;8.75;4.80;;;;;;;0.15;100.00;99946.84;10321927;28;20042;-62
2022/02/28 19:23:22;;;;;;;6.03;5.00;;;;;;;0.11;100.00;99941.72;10319031;28;20121;-60
2022/02/28 19:28:25;;;;;;;5.90;4.93;;;;;;;0.05;100.00;99953.41;10323081;28;20097;-60
2022/02/28 19:33:32;;;;;;;8.52;5.35;;;;;;;-0.06;100.00;99945.84;10326951;28;20049;-61
2022/02/28 19:38:35;;;;;;;6.30;4.50;;;;;;;-0.11;100.00;99934.56;10324120;28;20069;-60
2022/02/28 19:43:43;;;;;;;6.10;4.70;;;;;;;-0.18;100.00;99938.38;10331270;28;20121;-60
2022/02/28 19:48:49;;;;;;;6.82;5.90;;;;;;;-0.22;100.00;99926.16;10352488;28;20148;-61
2022/02/28 19:53:52;;;;;;;8.15;6.22;;;;;;;-0.29;100.00;99919.38;10318761;28;20411;-60
2022/02/28 19:59:16;;;;;;;7.97;6.40;;;;;;;-0.32;100.00;99928.25;10320629;28;20523;-62
2022/02/28 20:04:21;;;;;;;8.60;6.63;;;;;;;-0.38;100.00;99917.91;10323597;28;20499;-59
2022/02/28 20:09:24;;;;;;;10.38;8.45;;;;;;;-0.47;100.00;99925.22;10318916;28;20090;-56
2022/02/28 20:14:28;;;;;;;7.90;5.80;;;;;;;-0.52;100.00;99918.38;10321955;28;20078;-60
2022/02/28 20:19:32;;;;;;;7.93;6.38;;;;;;;-0.63;100.00;99919.63;10324492;28;20042;-58
2022/02/28 20:24:35;;;;;;;6.70;5.28;;;;;;;-0.69;100.00;99914.56;10322189;28;20130;-59
2022/02/28 20:29:38;;;;;;;8.38;6.65;;;;;;;-0.70;100.00;99917.22;10332362;28;20110;-60
2022/02/28 20:34:42;;;;;;;8.07;6.50;;;;;;;-0.72;100.00;99925.22;10330384;28;20141;-60
2022/02/28 20:39:45;;;;;;;7.85;5.47;;;;;;;-0.79;100.00;99914.00;10328079;28;20062;-63
2022/02/28 20:44:50;;;;;;;6.93;5.80;;;;;;;-0.85;100.00;99927.44;10333721;28;20038;-62
2022/02/28 20:49:56;;;;;;;7.90;6.30;;;;;;;-0.90;100.00;99926.72;10330635;28;20042;-59
2022/02/28 20:55:00;;;;;;;14.13;8.70;;;;;;;-0.93;100.00;99921.53;10327104;28;20514;-63
2022/02/28 21:00:04;;;;;;;7.05;5.22;;;;;;;-0.98;100.00;99923.47;10324365;28;20056;-57
2022/02/28 21:05:10;;;;;;;8.40;5.38;;;;;;;-1.11;100.00;99923.88;10334185;28;20052;-59
2022/02/28 21:10:14;;;;;;;8.07;5.80;;;;;;;-1.11;100.00;99918.59;10331152;28;20122;-61
2022/02/28 21:15:16;;;;;;;6.53;5.65;;;;;;;-1.15;100.00;99921.38;10334850;28;20049;-58
2022/02/28 21:20:21;;;;;;;9.23;5.93;;;;;;;-1.20;100.00;99915.38;10348416;28;20098;-55
2022/02/28 21:25:24;;;;;;;9.23;7.25;;;;;;;-1.21;100.00;99916.28;10337279;28;20051;-57
2022/02/28 21:30:27;;;;;;;12.95;9.98;;;;;;;-1.27;100.00;99912.94;10327515;28;20049;-55
2022/02/28 21:35:32;;;;;;;12.02;9.40;;;;;;;-1.29;100.00;99917.41;10350940;28;20042;-58
2022/02/28 21:40:35;;;;;;;9.43;6.72;;;;;;;-1.30;100.00;99912.19;10358166;28;20050;-60
2022/02/28 21:45:41;;;;;;;9.18;6.82;;;;;;;-1.29;100.00;99908.59;10350736;28;20054;-56
2022/02/28 21:50:46;;;;;;;19.63;15.60;;;;;;;-1.27;100.00;99910.28;10349863;28;20088;-58
2022/02/28 21:55:49;;;;;;;17.48;12.52;;;;;;;-1.27;100.00;99918.22;10353566;28;20038;-59
2022/02/28 22:00:52;;;;;;;17.00;12.02;;;;;;;-1.32;100.00;99917.50;10354567;28;21117;-60
2022/02/28 22:05:57;;;;;;;20.77;13.13;;;;;;;-1.33;100.00;99915.75;10355248;28;20053;-54
2022/02/28 22:11:00;;;;;;;14.57;9.98;;;;;;;-1.35;100.00;99909.66;10354807;28;20041;-54
2022/02/28 22:16:03;;;;;;;8.27;6.03;;;;;;;-1.36;100.00;99902.66;10355094;28;20038;-52
2022/02/28 22:21:08;;;;;;;7.82;6.32;;;;;;;-1.38;100.00;99915.06;10352396;28;20455;-59
2022/02/28 22:26:11;;;;;;;9.10;6.40;;;;;;;-1.43;100.00;99920.50;10352168;28;20422;-57
2022/02/28 22:31:14;;;;;;;9.07;5.90;;;;;;;-1.46;100.00;99917.06;10346826;28;20042;-52
2022/02/28 22:36:19;;;;;;;8.05;6.18;;;;;;;-1.48;100.00;99909.19;10336868;28;20130;-56
2022/02/28 22:41:22;;;;;;;8.30;6.30;;;;;;;-1.53;100.00;99918.19;10339079;28;20129;-57
2022/02/28 22:46:29;;;;;;;6.97;5.97;;;;;;;-1.53;100.00;99912.88;10332104;28;20046;-51
2022/02/28 22:51:34;;;;;;;8.10;6.10;;;;;;;-1.55;100.00;99934.94;10340506;28;20411;-51
2022/02/28 22:56:37;;;;;;;8.02;5.88;;;;;;;-1.60;100.00;99921.03;10333084;28;20082;-56
2022/02/28 23:01:40;;;;;;;8.25;5.63;;;;;;;-1.61;100.00;99921.06;10327161;28;20090;-54
2022/02/28 23:06:46;;;;;;;7.32;6.13;;;;;;;-1.65;100.00;99922.06;10322202;28;20066;-57
2022/02/28 23:22:32;;;;;;;7.97;6.00;;;;;;;-1.80;100.00;99912.81;10328351;28;20109;-51
2022/02/28 23:27:35;;;;;;;7.25;5.63;;;;;;;-1.82;100.00;99920.78;10323666;28;20481;-52